Bookmark and Share
Track history (hours):
 

Seven Sins

Last reported at 2014-Apr-20 16:21 UTC. Time now 2014-Apr-21 04:49 UTC.
Position N 18°11' W 063°10'.

Length 43 m; draft 3.1 m.

Type: Pleasure craft. MMSI: 319425000.

NotesDate/timePositionNaut miles runAvg speedWind from/ knotsBaromVisibWave heightAir tempDewpointWater temp
2014-Apr-20 16:21N 18°11' W 063°10'7 8.4
2014-Apr-20 15:31N 18°05' W 063°06'1 0.6
2014-Apr-20 14:05N 18°04' W 063°05'0 0.0
2014-Apr-20 13:21N 18°04' W 063°05'0 0.0
2014-Apr-20 11:20N 18°04' W 063°05'0 0.0
2014-Apr-20 10:08N 18°04' W 063°05'0 0.0
2014-Apr-20 09:26N 18°04' W 063°05'0 0.0
2014-Apr-20 08:26N 18°04' W 063°05'0 0.0
2014-Apr-20 07:29N 18°04' W 063°05'0 0.0
2014-Apr-20 06:29N 18°04' W 063°05'0 0.0
2014-Apr-20 05:17N 18°04' W 063°05'0 0.0
2014-Apr-20 04:14N 18°04' W 063°05'0 0.0
2014-Apr-20 03:29N 18°04' W 063°05'0 0.0
2014-Apr-20 00:05N 18°04' W 063°05'0 0.0
2014-Apr-19 23:08N 18°04' W 063°05'0 0.0
2014-Apr-19 22:11N 18°04' W 063°05'0 0.0
2014-Apr-19 20:26N 18°04' W 063°05'0 0.0
2014-Apr-19 18:25N 18°04' W 063°05'1 0.6
2014-Apr-19 17:29N 18°05' W 063°06'4 3.5
2014-Apr-19 16:29N 18°02' W 063°08'  
2014-Apr-15 05:31N 18°02' W 063°06'0 0.0
2014-Apr-15 02:31N 18°02' W 063°06'0 0.0
2014-Apr-15 00:34N 18°02' W 063°06'0 0.0
2014-Apr-14 22:31N 18°02' W 063°06'0 0.0
2014-Apr-14 19:34N 18°02' W 063°06'0 0.0
2014-Apr-14 07:33N 18°02' W 063°06'0 0.0
2014-Apr-14 05:34N 18°02' W 063°06'0 0.0
2014-Apr-13 22:28N 18°02' W 063°06'0 0.0
2014-Apr-13 21:28N 18°02' W 063°06'0 0.0
2014-Apr-13 20:33N 18°02' W 063°06'0 0.0
2014-Apr-13 19:15N 18°02' W 063°06'0 0.0
2014-Apr-13 18:33N 18°02' W 063°06'0 0.0
2014-Apr-13 17:03N 18°02' W 063°06'0 0.0
2014-Apr-13 16:24N 18°02' W 063°06'0 0.0
2014-Apr-13 15:09N 18°02' W 063°06'0 0.0
2014-Apr-13 14:07N 18°02' W 063°06'0 0.0
2014-Apr-13 13:24N 18°02' W 063°06'0 0.0
2014-Apr-13 12:24N 18°02' W 063°06'0 0.0
2014-Apr-13 11:21N 18°02' W 063°06'0 0.0
2014-Apr-13 10:21N 18°02' W 063°06'0 0.0
2014-Apr-13 09:21N 18°02' W 063°06'0 0.0
2014-Apr-13 08:27N 18°02' W 063°06'0 0.0
2014-Apr-13 07:30N 18°02' W 063°06'0 0.0
2014-Apr-13 06:24N 18°02' W 063°06'0 0.0
2014-Apr-13 05:30N 18°02' W 063°06'0 0.0
2014-Apr-13 04:33N 18°02' W 063°06'0 0.0
2014-Apr-13 03:27N 18°02' W 063°06'0 0.0
2014-Apr-13 02:33N 18°02' W 063°06'0 0.0
2014-Apr-13 01:21N 18°02' W 063°06'0 0.0
2014-Apr-13 00:22N 18°02' W 063°06'0 0.0
2014-Apr-12 23:22N 18°02' W 063°06'0 0.0
2014-Apr-12 22:21N 18°02' W 063°06'0 0.0
2014-Apr-12 21:21N 18°02' W 063°06'0 0.0
2014-Apr-12 20:24N 18°02' W 063°06'0 0.0
2014-Apr-12 19:27N 18°02' W 063°06'0 0.0
2014-Apr-12 18:28N 18°02' W 063°06'0 0.0
2014-Apr-12 17:27N 18°02' W 063°06'0 0.0
2014-Apr-12 16:30N 18°02' W 063°06'0 0.3
2014-Apr-12 15:31N 18°02' W 063°06'2 0.0
2014-Apr-10 21:23N 18°01' W 063°05'810.0
2014-Apr-10 20:33N 18°04' W 063°13'  

Dump ship's entire track history

sailing weather and tide predictions

Seven Sins — ZCOD6 — position and weather